sensor_id;sensor_type;location;lat;lon;timestamp;pressure;altitude;pressure_sealevel;temperature;humidity
41686;BME280;27370;42.764;23.432;2022-08-21T00:01:35;94985.19;;;17.44;100.00
41686;BME280;27370;42.764;23.432;2022-08-21T00:04:08;94987.50;;;17.60;100.00
41686;BME280;27370;42.764;23.432;2022-08-21T00:06:35;94990.31;;;17.51;100.00
41686;BME280;27370;42.764;23.432;2022-08-21T00:09:03;94993.41;;;17.44;100.00
41686;BME280;27370;42.764;23.432;2022-08-21T00:11:28;94985.03;;;17.48;100.00
41686;BME280;27370;42.764;23.432;2022-08-21T00:13:55;94980.00;;;17.46;100.00
41686;BME280;27370;42.764;23.432;2022-08-21T00:16:20;94974.66;;;17.52;100.00
41686;BME280;27370;42.764;23.432;2022-08-21T00:18:46;94976.25;;;17.58;100.00
41686;BME280;27370;42.764;23.432;2022-08-21T00:21:13;94979.28;;;17.60;100.00
41686;BME280;27370;42.764;23.432;2022-08-21T00:23:39;94974.19;;;17.53;100.00
41686;BME280;27370;42.764;23.432;2022-08-21T00:26:05;94978.13;;;17.52;100.00
41686;BME280;27370;42.764;23.432;2022-08-21T00:28:31;94978.22;;;17.43;100.00
41686;BME280;27370;42.764;23.432;2022-08-21T00:30:56;94973.13;;;17.51;100.00
41686;BME280;27370;42.764;23.432;2022-08-21T00:33:23;94972.09;;;17.48;100.00
41686;BME280;27370;42.764;23.432;2022-08-21T00:35:49;94975.59;;;17.49;100.00
41686;BME280;27370;42.764;23.432;2022-08-21T00:38:14;94971.81;;;17.46;100.00
41686;BME280;27370;42.764;23.432;2022-08-21T00:43:11;94968.59;;;17.48;100.00
41686;BME280;27370;42.764;23.432;2022-08-21T00:45:38;94980.00;;;17.46;100.00
41686;BME280;27370;42.764;23.432;2022-08-21T00:48:04;94980.00;;;17.46;100.00
41686;BME280;27370;42.764;23.432;2022-08-21T00:50:32;94974.66;;;17.52;100.00
41686;BME280;27370;42.764;23.432;2022-08-21T00:52:59;94976.63;;;17.51;100.00
41686;BME280;27370;42.764;23.432;2022-08-21T00:55:26;94985.97;;;17.44;100.00
41686;BME280;27370;42.764;23.432;2022-08-21T00:57:55;94988.38;;;17.42;100.00
41686;BME280;27370;42.764;23.432;2022-08-21T01:00:32;94990.72;;;17.35;100.00
41686;BME280;27370;42.764;23.432;2022-08-21T01:03:01;94989.50;;;17.36;100.00
41686;BME280;27370;42.764;23.432;2022-08-21T01:05:27;94991.56;;;17.41;100.00
41686;BME280;27370;42.764;23.432;2022-08-21T01:07:54;94980.31;;;17.48;100.00
41686;BME280;27370;42.764;23.432;2022-08-21T01:10:22;94983.53;;;17.61;100.00
41686;BME280;27370;42.764;23.432;2022-08-21T01:12:48;94985.69;;;17.57;100.00
41686;BME280;27370;42.764;23.432;2022-08-21T01:15:16;94979.84;;;17.50;100.00
41686;BME280;27370;42.764;23.432;2022-08-21T01:17:42;94965.03;;;17.56;100.00
41686;BME280;27370;42.764;23.432;2022-08-21T01:20:10;94960.31;;;17.57;100.00
41686;BME280;27370;42.764;23.432;2022-08-21T01:22:36;94961.25;;;17.54;100.00
41686;BME280;27370;42.764;23.432;2022-08-21T01:25:04;94955.50;;;17.52;100.00
41686;BME280;27370;42.764;23.432;2022-08-21T01:27:30;94960.56;;;17.68;100.00
41686;BME280;27370;42.764;23.432;2022-08-21T01:32:57;94967.94;;;17.53;100.00
41686;BME280;27370;42.764;23.432;2022-08-21T01:35:23;94956.13;;;17.47;100.00
41686;BME280;27370;42.764;23.432;2022-08-21T01:37:48;94956.53;;;17.54;100.00
41686;BME280;27370;42.764;23.432;2022-08-21T01:40:16;94960.22;;;17.51;100.00
41686;BME280;27370;42.764;23.432;2022-08-21T01:42:43;94973.88;;;17.51;100.00
41686;BME280;27370;42.764;23.432;2022-08-21T01:45:10;94966.63;;;17.48;100.00
41686;BME280;27370;42.764;23.432;2022-08-21T01:47:36;94972.56;;;17.47;100.00
41686;BME280;27370;42.764;23.432;2022-08-21T01:50:04;94975.97;;;17.56;100.00
41686;BME280;27370;42.764;23.432;2022-08-21T01:52:30;94972.38;;;17.50;100.00
41686;BME280;27370;42.764;23.432;2022-08-21T01:54:56;94965.56;;;17.45;100.00
41686;BME280;27370;42.764;23.432;2022-08-21T01:57:22;94967.69;;;17.41;100.00
41686;BME280;27370;42.764;23.432;2022-08-21T01:59:48;94972.66;;;17.52;100.00
41686;BME280;27370;42.764;23.432;2022-08-21T02:02:13;94971.81;;;17.46;100.00
41686;BME280;27370;42.764;23.432;2022-08-21T02:04:38;94964.63;;;17.49;100.00
41686;BME280;27370;42.764;23.432;2022-08-21T02:07:04;94957.81;;;17.44;100.00
41686;BME280;27370;42.764;23.432;2022-08-21T02:09:30;94966.03;;;17.44;100.00
41686;BME280;27370;42.764;23.432;2022-08-21T02:11:55;94977.00;;;17.44;100.00
41686;BME280;27370;42.764;23.432;2022-08-21T02:14:21;94972.66;;;17.52;100.00
41686;BME280;27370;42.764;23.432;2022-08-21T02:16:47;94961.78;;;17.43;100.00
41686;BME280;27370;42.764;23.432;2022-08-21T02:19:14;94972.13;;;17.39;100.00
41686;BME280;27370;42.764;23.432;2022-08-21T02:21:40;94978.53;;;17.36;100.00
41686;BME280;27370;42.764;23.432;2022-08-21T02:24:07;94983.72;;;17.34;100.00
41686;BME280;27370;42.764;23.432;2022-08-21T02:26:33;94983.69;;;17.43;100.00
41686;BME280;27370;42.764;23.432;2022-08-21T02:28:58;94987.31;;;17.40;100.00
41686;BME280;27370;42.764;23.432;2022-08-21T02:31:24;94979.19;;;17.31;100.00
41686;BME280;27370;42.764;23.432;2022-08-21T02:33:50;94983.31;;;17.26;100.00
41686;BME280;27370;42.764;23.432;2022-08-21T02:36:15;94982.22;;;17.33;100.00
41686;BME280;27370;42.764;23.432;2022-08-21T02:38:42;94989.94;;;17.34;100.00
41686;BME280;27370;42.764;23.432;2022-08-21T02:41:12;94990.88;;;17.31;100.00
41686;BME280;27370;42.764;23.432;2022-08-21T02:43:39;94988.38;;;17.42;100.00
41686;BME280;27370;42.764;23.432;2022-08-21T02:46:05;94994.63;;;17.43;100.00
41686;BME280;27370;42.764;23.432;2022-08-21T02:48:32;94993.09;;;17.42;100.00
41686;BME280;27370;42.764;23.432;2022-08-21T02:51:01;94995.91;;;17.33;100.00
41686;BME280;27370;42.764;23.432;2022-08-21T02:53:28;94994.81;;;17.06;100.00
41686;BME280;27370;42.764;23.432;2022-08-21T02:55:56;94990.66;;;16.87;100.00
41686;BME280;27370;42.764;23.432;2022-08-21T02:58:25;94999.78;;;16.84;100.00
41686;BME280;27370;42.764;23.432;2022-08-21T03:00:51;95001.72;;;16.93;100.00
41686;BME280;27370;42.764;23.432;2022-08-21T03:03:18;95003.22;;;16.94;100.00
41686;BME280;27370;42.764;23.432;2022-08-21T03:05:46;95010.13;;;17.13;100.00
41686;BME280;27370;42.764;23.432;2022-08-21T03:08:14;95008.78;;;17.08;100.00
41686;BME280;27370;42.764;23.432;2022-08-21T03:10:42;95005.63;;;17.01;100.00
41686;BME280;27370;42.764;23.432;2022-08-21T03:13:09;94999.25;;;16.95;100.00
41686;BME280;27370;42.764;23.432;2022-08-21T03:15:35;94994.88;;;16.88;100.00
41686;BME280;27370;42.764;23.432;2022-08-21T03:18:02;95002.16;;;16.91;100.00
41686;BME280;27370;42.764;23.432;2022-08-21T03:20:29;95003.38;;;16.99;100.00
41686;BME280;27370;42.764;23.432;2022-08-21T03:22:57;95005.88;;;17.12;100.00
41686;BME280;27370;42.764;23.432;2022-08-21T03:25:25;95005.13;;;17.11;100.00
41686;BME280;27370;42.764;23.432;2022-08-21T03:27:51;95000.19;;;16.92;100.00
41686;BME280;27370;42.764;23.432;2022-08-21T03:30:18;95002.47;;;16.93;100.00
41686;BME280;27370;42.764;23.432;2022-08-21T03:32:46;94994.56;;;16.95;100.00
41686;BME280;27370;42.764;23.432;2022-08-21T03:35:12;94990.91;;;16.98;100.00
41686;BME280;27370;42.764;23.432;2022-08-21T03:37:39;95000.47;;;16.94;100.00
41686;BME280;27370;42.764;23.432;2022-08-21T03:40:07;94999.41;;;17.00;100.00
41686;BME280;27370;42.764;23.432;2022-08-21T03:42:32;95002.75;;;16.95;100.00
41686;BME280;27370;42.764;23.432;2022-08-21T03:44:58;95003.19;;;17.03;100.00
41686;BME280;27370;42.764;23.432;2022-08-21T03:47:24;95001.81;;;17.07;100.00
41686;BME280;27370;42.764;23.432;2022-08-21T03:49:49;95009.63;;;17.24;100.00
41686;BME280;27370;42.764;23.432;2022-08-21T03:52:15;94998.59;;;17.09;100.00
41686;BME280;27370;42.764;23.432;2022-08-21T03:54:43;94995.09;;;17.08;100.00
41686;BME280;27370;42.764;23.432;2022-08-21T03:57:09;94986.69;;;17.21;100.00
41686;BME280;27370;42.764;23.432;2022-08-21T03:59:36;94982.31;;;17.14;100.00
41686;BME280;27370;42.764;23.432;2022-08-21T04:02:05;94979.28;;;17.12;100.00
41686;BME280;27370;42.764;23.432;2022-08-21T04:04:31;94987.94;;;17.20;100.00
41686;BME280;27370;42.764;23.432;2022-08-21T04:06:57;94996.13;;;17.20;100.00
41686;BME280;27370;42.764;23.432;2022-08-21T04:09:23;94999.63;;;17.21;100.00
41686;BME280;27370;42.764;23.432;2022-08-21T04:11:49;95008.72;;;17.27;100.00
41686;BME280;27370;42.764;23.432;2022-08-21T04:14:15;95007.84;;;17.11;100.00
41686;BME280;27370;42.764;23.432;2022-08-21T04:16:41;95010.59;;;17.11;100.00
41686;BME280;27370;42.764;23.432;2022-08-21T04:19:08;95005.00;;;17.06;100.00
41686;BME280;27370;42.764;23.432;2022-08-21T04:21:35;95006.94;;;17.14;100.00
41686;BME280;27370;42.764;23.432;2022-08-21T04:24:01;94999.78;;;17.17;100.00
41686;BME280;27370;42.764;23.432;2022-08-21T04:26:27;95009.53;;;17.09;100.00
41686;BME280;27370;42.764;23.432;2022-08-21T04:28:52;95004.53;;;17.07;100.00
41686;BME280;27370;42.764;23.432;2022-08-21T04:31:18;95007.28;;;17.07;100.00
41686;BME280;27370;42.764;23.432;2022-08-21T04:33:44;95002.72;;;17.04;100.00
41686;BME280;27370;42.764;23.432;2022-08-21T04:36:11;94999.13;;;16.89;100.00
41686;BME280;27370;42.764;23.432;2022-08-21T04:38:37;94998.91;;;16.69;100.00
41686;BME280;27370;42.764;23.432;2022-08-21T04:41:02;95001.94;;;16.71;100.00
41686;BME280;27370;42.764;23.432;2022-08-21T04:43:28;94996.69;;;16.91;100.00
41686;BME280;27370;42.764;23.432;2022-08-21T04:45:53;94990.44;;;17.00;100.00
41686;BME280;27370;42.764;23.432;2022-08-21T04:48:21;94987.84;;;16.96;100.00
41686;BME280;27370;42.764;23.432;2022-08-21T04:53:26;94994.31;;;17.41;100.00
41686;BME280;27370;42.764;23.432;2022-08-21T04:55:56;94994.50;;;17.61;100.00
41686;BME280;27370;42.764;23.432;2022-08-21T04:58:25;94996.59;;;17.66;100.00
41686;BME280;27370;42.764;23.432;2022-08-21T05:00:54;94998.72;;;17.71;100.00
41686;BME280;27370;42.764;23.432;2022-08-21T05:03:21;95005.06;;;17.78;100.00
41686;BME280;27370;42.764;23.432;2022-08-21T05:05:48;95004.88;;;17.81;100.00
41686;BME280;27370;42.764;23.432;2022-08-21T05:08:16;95003.25;;;17.74;100.00
41686;BME280;27370;42.764;23.432;2022-08-21T05:10:42;94998.06;;;17.77;100.00
41686;BME280;27370;42.764;23.432;2022-08-21T05:13:10;94993.03;;;17.99;100.00
41686;BME280;27370;42.764;23.432;2022-08-21T05:15:38;94999.50;;;18.25;100.00
41686;BME280;27370;42.764;23.432;2022-08-21T05:18:04;94997.31;;;18.15;100.00
41686;BME280;27370;42.764;23.432;2022-08-21T05:20:29;95008.19;;;18.24;100.00
41686;BME280;27370;42.764;23.432;2022-08-21T05:22:55;94999.81;;;18.42;100.00
41686;BME280;27370;42.764;23.432;2022-08-21T05:25:21;95008.72;;;18.66;100.00
41686;BME280;27370;42.764;23.432;2022-08-21T05:27:46;95006.25;;;18.69;100.00
41686;BME280;27370;42.764;23.432;2022-08-21T05:30:12;95010.31;;;18.88;100.00
41686;BME280;27370;42.764;23.432;2022-08-21T05:32:37;95007.22;;;18.65;100.00
41686;BME280;27370;42.764;23.432;2022-08-21T05:35:07;94996.38;;;19.06;100.00
41686;BME280;27370;42.764;23.432;2022-08-21T05:37:33;94986.19;;;19.27;100.00
41686;BME280;27370;42.764;23.432;2022-08-21T05:39:59;95003.84;;;19.41;100.00
41686;BME280;27370;42.764;23.432;2022-08-21T05:42:25;95001.47;;;19.48;100.00
41686;BME280;27370;42.764;23.432;2022-08-21T05:44:50;94998.75;;;19.69;100.00
41686;BME280;27370;42.764;23.432;2022-08-21T05:47:16;94998.47;;;19.67;100.00
41686;BME280;27370;42.764;23.432;2022-08-21T05:49:41;95001.44;;;19.63;100.00
41686;BME280;27370;42.764;23.432;2022-08-21T05:52:07;94995.88;;;19.57;100.00
41686;BME280;27370;42.764;23.432;2022-08-21T05:54:32;95000.19;;;19.64;100.00
41686;BME280;27370;42.764;23.432;2022-08-21T05:56:58;95000.28;;;19.70;100.00
41686;BME280;27370;42.764;23.432;2022-08-21T05:59:23;95001.22;;;19.87;100.00
41686;BME280;27370;42.764;23.432;2022-08-21T06:01:49;94984.19;;;20.03;100.00
41686;BME280;27370;42.764;23.432;2022-08-21T06:04:18;94995.94;;;20.04;100.00
41686;BME280;27370;42.764;23.432;2022-08-21T06:06:43;94991.97;;;20.57;100.00
41686;BME280;27370;42.764;23.432;2022-08-21T06:09:09;94999.66;;;20.27;100.00
41686;BME280;27370;42.764;23.432;2022-08-21T06:11:34;94998.88;;;20.00;100.00
41686;BME280;27370;42.764;23.432;2022-08-21T06:14:00;94989.25;;;20.10;100.00
41686;BME280;27370;42.764;23.432;2022-08-21T06:16:26;94991.09;;;20.19;100.00
41686;BME280;27370;42.764;23.432;2022-08-21T06:18:52;94992.34;;;20.18;100.00
41686;BME280;27370;42.764;23.432;2022-08-21T06:21:18;94994.47;;;20.08;100.00
41686;BME280;27370;42.764;23.432;2022-08-21T06:23:44;94997.94;;;20.29;100.00
41686;BME280;27370;42.764;23.432;2022-08-21T06:26:11;94987.19;;;20.52;100.00
41686;BME280;27370;42.764;23.432;2022-08-21T06:28:37;94997.56;;;20.62;100.00
41686;BME280;27370;42.764;23.432;2022-08-21T06:31:17;94995.06;;;20.64;100.00
41686;BME280;27370;42.764;23.432;2022-08-21T06:33:43;94998.78;;;20.61;100.00
41686;BME280;27370;42.764;23.432;2022-08-21T06:36:08;95005.81;;;20.62;100.00
41686;BME280;27370;42.764;23.432;2022-08-21T06:38:35;94999.09;;;20.69;100.00
41686;BME280;27370;42.764;23.432;2022-08-21T06:41:01;95003.94;;;20.79;100.00
41686;BME280;27370;42.764;23.432;2022-08-21T06:43:26;95000.88;;;21.03;100.00
41686;BME280;27370;42.764;23.432;2022-08-21T06:45:52;95005.47;;;21.18;100.00
41686;BME280;27370;42.764;23.432;2022-08-21T06:48:18;95016.63;;;21.29;100.00
41686;BME280;27370;42.764;23.432;2022-08-21T06:50:43;95000.34;;;21.31;100.00
41686;BME280;27370;42.764;23.432;2022-08-21T06:53:11;95005.38;;;21.32;100.00
41686;BME280;27370;42.764;23.432;2022-08-21T06:55:38;94994.50;;;21.23;100.00
41686;BME280;27370;42.764;23.432;2022-08-21T06:58:05;94998.22;;;21.15;100.00
41686;BME280;27370;42.764;23.432;2022-08-21T07:00:32;95001.06;;;21.26;100.00
41686;BME280;27370;42.764;23.432;2022-08-21T07:02:57;95000.53;;;21.64;100.00
41686;BME280;27370;42.764;23.432;2022-08-21T07:05:29;95006.00;;;22.13;100.00
41686;BME280;27370;42.764;23.432;2022-08-21T07:07:55;95012.59;;;22.32;100.00
41686;BME280;27370;42.764;23.432;2022-08-21T07:10:22;95018.09;;;22.26;100.00
41686;BME280;27370;42.764;23.432;2022-08-21T07:12:47;95005.00;;;22.16;100.00
41686;BME280;27370;42.764;23.432;2022-08-21T07:15:13;95002.13;;;21.82;100.00
41686;BME280;27370;42.764;23.432;2022-08-21T07:17:38;95002.78;;;21.66;100.00
41686;BME280;27370;42.764;23.432;2022-08-21T07:20:05;95011.56;;;21.64;100.00
41686;BME280;27370;42.764;23.432;2022-08-21T07:22:31;95000.00;;;21.60;100.00
41686;BME280;27370;42.764;23.432;2022-08-21T07:24:57;95000.06;;;21.71;100.00
41686;BME280;27370;42.764;23.432;2022-08-21T07:27:22;94992.06;;;21.74;100.00
41686;BME280;27370;42.764;23.432;2022-08-21T07:29:48;94993.28;;;21.73;100.00
41686;BME280;27370;42.764;23.432;2022-08-21T07:32:13;94994.06;;;21.73;100.00
41686;BME280;27370;42.764;23.432;2022-08-21T07:34:40;94990.25;;;21.65;100.00
41686;BME280;27370;42.764;23.432;2022-08-21T07:37:06;94994.06;;;21.73;100.00
41686;BME280;27370;42.764;23.432;2022-08-21T07:39:31;94988.38;;;21.93;100.00
41686;BME280;27370;42.764;23.432;2022-08-21T07:41:56;94992.47;;;22.15;100.00
41686;BME280;27370;42.764;23.432;2022-08-21T07:44:22;94980.72;;;22.20;100.00
41686;BME280;27370;42.764;23.432;2022-08-21T07:46:47;94981.75;;;22.34;100.00
41686;BME280;27370;42.764;23.432;2022-08-21T07:49:13;94989.78;;;22.37;100.00
41686;BME280;27370;42.764;23.432;2022-08-21T07:51:38;94983.28;;;22.51;100.00
41686;BME280;27370;42.764;23.432;2022-08-21T07:54:04;94978.03;;;22.48;100.00
41686;BME280;27370;42.764;23.432;2022-08-21T07:56:30;94969.22;;;22.27;100.00
41686;BME280;27370;42.764;23.432;2022-08-21T07:58:56;94976.94;;;22.17;100.00
41686;BME280;27370;42.764;23.432;2022-08-21T08:01:23;94965.59;;;21.98;100.00
41686;BME280;27370;42.764;23.432;2022-08-21T08:03:49;94964.66;;;22.13;100.00
41686;BME280;27370;42.764;23.432;2022-08-21T08:06:14;94974.72;;;22.33;100.00
41686;BME280;27370;42.764;23.432;2022-08-21T08:08:42;94971.97;;;22.38;100.00
41686;BME280;27370;42.764;23.432;2022-08-21T08:11:09;94970.75;;;22.61;100.00
41686;BME280;27370;42.764;23.432;2022-08-21T08:13:39;94964.78;;;22.91;100.00
41686;BME280;27370;42.764;23.432;2022-08-21T08:16:05;94976.03;;;23.21;100.00
41686;BME280;27370;42.764;23.432;2022-08-21T08:18:30;94963.50;;;22.98;100.00
41686;BME280;27370;42.764;23.432;2022-08-21T08:20:56;94959.50;;;22.82;100.00
41686;BME280;27370;42.764;23.432;2022-08-21T08:23:21;94959.00;;;22.89;100.00
41686;BME280;27370;42.764;23.432;2022-08-21T08:25:48;94960.50;;;22.90;100.00
41686;BME280;27370;42.764;23.432;2022-08-21T08:28:13;94958.47;;;22.85;100.00
41686;BME280;27370;42.764;23.432;2022-08-21T08:30:39;94966.28;;;22.92;100.00
41686;BME280;27370;42.764;23.432;2022-08-21T08:33:04;94960.75;;;22.92;100.00
41686;BME280;27370;42.764;23.432;2022-08-21T08:35:30;94965.03;;;22.93;100.00
41686;BME280;27370;42.764;23.432;2022-08-21T08:37:55;94967.75;;;23.04;100.00
41686;BME280;27370;42.764;23.432;2022-08-21T08:40:35;94969.28;;;22.94;100.00
41686;BME280;27370;42.764;23.432;2022-08-21T08:43:03;94967.50;;;23.19;100.00
41686;BME280;27370;42.764;23.432;2022-08-21T08:45:37;94967.75;;;23.32;100.00
41686;BME280;27370;42.764;23.432;2022-08-21T08:48:08;94970.22;;;23.30;100.00
41686;BME280;27370;42.764;23.432;2022-08-21T08:50:57;94962.72;;;23.25;100.00
41686;BME280;27370;42.764;23.432;2022-08-21T08:53:33;94973.53;;;23.17;100.00
41686;BME280;27370;42.764;23.432;2022-08-21T08:56:00;94972.75;;;23.28;100.00
41686;BME280;27370;42.764;23.432;2022-08-21T08:58:37;94970.75;;;23.34;100.00
41686;BME280;27370;42.764;23.432;2022-08-21T09:01:19;94972.50;;;23.32;100.00
41686;BME280;27370;42.764;23.432;2022-08-21T09:03:46;94965.47;;;23.36;100.00
41686;BME280;27370;42.764;23.432;2022-08-21T09:09:11;94953.41;;;23.34;100.00
41686;BME280;27370;42.764;23.432;2022-08-21T09:17:30;94952.09;;;23.51;100.00
41686;BME280;27370;42.764;23.432;2022-08-21T09:25:45;94941.50;;;23.78;100.00
41686;BME280;27370;42.764;23.432;2022-08-21T09:28:15;94940.19;;;23.85;100.00
41686;BME280;27370;42.764;23.432;2022-08-21T09:30:41;94940.38;;;23.98;100.00
41686;BME280;27370;42.764;23.432;2022-08-21T09:33:09;94935.09;;;24.00;100.00
41686;BME280;27370;42.764;23.432;2022-08-21T09:35:47;94938.25;;;23.68;100.00
41686;BME280;27370;42.764;23.432;2022-08-21T09:38:25;94931.31;;;24.03;100.00
41686;BME280;27370;42.764;23.432;2022-08-21T09:40:57;94938.03;;;24.13;100.00
41686;BME280;27370;42.764;23.432;2022-08-21T09:43:24;94935.28;;;24.13;100.00
41686;BME280;27370;42.764;23.432;2022-08-21T09:46:23;94934.28;;;24.10;100.00
41686;BME280;27370;42.764;23.432;2022-08-21T09:48:51;94931.69;;;24.29;100.00
41686;BME280;27370;42.764;23.432;2022-08-21T09:51:22;94939.28;;;24.59;100.00
41686;BME280;27370;42.764;23.432;2022-08-21T09:54:10;94934.31;;;24.82;100.00
41686;BME280;27370;42.764;23.432;2022-08-21T09:57:04;94938.28;;;24.86;100.00
41686;BME280;27370;42.764;23.432;2022-08-21T09:59:45;94930.41;;;25.01;100.00
41686;BME280;27370;42.764;23.432;2022-08-21T10:02:32;94932.06;;;25.10;100.00
41686;BME280;27370;42.764;23.432;2022-08-21T10:07:27;94923.94;;;25.18;100.00
41686;BME280;27370;42.764;23.432;2022-08-21T10:10:07;94923.13;;;25.23;100.00
41686;BME280;27370;42.764;23.432;2022-08-21T10:12:41;94917.28;;;25.51;100.00
41686;BME280;27370;42.764;23.432;2022-08-21T10:15:36;94921.69;;;25.41;100.00
41686;BME280;27370;42.764;23.432;2022-08-21T10:18:22;94923.88;;;24.99;97.92
41686;BME280;27370;42.764;23.432;2022-08-21T10:24:03;94909.25;;;24.68;100.00
41686;BME280;27370;42.764;23.432;2022-08-21T10:29:54;94911.16;;;24.08;100.00
41686;BME280;27370;42.764;23.432;2022-08-21T10:35:23;94910.31;;;23.83;100.00
41686;BME280;27370;42.764;23.432;2022-08-21T10:40:56;94898.53;;;23.71;100.00
41686;BME280;27370;42.764;23.432;2022-08-21T10:46:21;94895.59;;;23.47;100.00
41686;BME280;27370;42.764;23.432;2022-08-21T10:48:54;94893.34;;;23.45;100.00
41686;BME280;27370;42.764;23.432;2022-08-21T10:51:40;94881.81;;;23.30;100.00
41686;BME280;27370;42.764;23.432;2022-08-21T10:54:20;94882.06;;;23.38;100.00
41686;BME280;27370;42.764;23.432;2022-08-21T10:56:56;94880.25;;;23.51;100.00
41686;BME280;27370;42.764;23.432;2022-08-21T10:59:31;94884.22;;;23.67;100.00
41686;BME280;27370;42.764;23.432;2022-08-21T11:02:03;94877.69;;;23.70;100.00
41686;BME280;27370;42.764;23.432;2022-08-21T11:04:39;94881.50;;;23.62;100.00
41686;BME280;27370;42.764;23.432;2022-08-21T11:09:43;94869.56;;;23.83;100.00
41686;BME280;27370;42.764;23.432;2022-08-21T11:12:34;94866.06;;;24.19;100.00
41686;BME280;27370;42.764;23.432;2022-08-21T11:17:59;94862.41;;;25.00;100.00
41686;BME280;27370;42.764;23.432;2022-08-21T11:23:11;94844.59;;;25.39;99.50
41686;BME280;27370;42.764;23.432;2022-08-21T11:25:50;94840.44;;;25.27;100.00
41686;BME280;27370;42.764;23.432;2022-08-21T11:37:31;94842.09;;;25.79;100.00
41686;BME280;27370;42.764;23.432;2022-08-21T11:40:12;94837.34;;;26.11;93.15
41686;BME280;27370;42.764;23.432;2022-08-21T11:42:50;94832.75;;;25.82;94.42
41686;BME280;27370;42.764;23.432;2022-08-21T11:50:31;94837.44;;;25.87;89.90
41686;BME280;27370;42.764;23.432;2022-08-21T11:53:10;94841.25;;;25.65;96.76
41686;BME280;27370;42.764;23.432;2022-08-21T11:56:27;94833.47;;;25.63;97.72
41686;BME280;27370;42.764;23.432;2022-08-21T11:58:40;94830.66;;;25.45;97.84
41686;BME280;27370;42.764;23.432;2022-08-21T12:01:14;94827.75;;;25.56;95.23
41686;BME280;27370;42.764;23.432;2022-08-21T12:03:52;94823.09;;;25.45;94.24
41686;BME280;27370;42.764;23.432;2022-08-21T12:06:30;94817.72;;;25.53;99.71
41686;BME280;27370;42.764;23.432;2022-08-21T12:08:59;94820.34;;;25.64;98.90
41686;BME280;27370;42.764;23.432;2022-08-21T12:11:26;94820.88;;;25.62;98.98
41686;BME280;27370;42.764;23.432;2022-08-21T12:16:30;94821.72;;;25.33;97.90
41686;BME280;27370;42.764;23.432;2022-08-21T12:19:06;94812.53;;;25.25;97.73
41686;BME280;27370;42.764;23.432;2022-08-21T12:21:32;94805.38;;;25.11;99.78
41686;BME280;27370;42.764;23.432;2022-08-21T12:24:05;94812.56;;;25.00;99.81
41686;BME280;27370;42.764;23.432;2022-08-21T12:29:32;94813.56;;;24.73;99.47
41686;BME280;27370;42.764;23.432;2022-08-21T12:34:29;94827.28;;;24.60;100.00
41686;BME280;27370;42.764;23.432;2022-08-21T12:37:00;94830.91;;;24.49;100.00
41686;BME280;27370;42.764;23.432;2022-08-21T12:39:59;94820.91;;;24.40;100.00
41686;BME280;27370;42.764;23.432;2022-08-21T12:42:39;94831.19;;;24.46;100.00
41686;BME280;27370;42.764;23.432;2022-08-21T12:45:31;94822.63;;;24.43;100.00
41686;BME280;27370;42.764;23.432;2022-08-21T12:48:20;94825.53;;;24.57;100.00
41686;BME280;27370;42.764;23.432;2022-08-21T12:50:54;94820.53;;;24.55;100.00
41686;BME280;27370;42.764;23.432;2022-08-21T12:55:51;94817.91;;;24.68;100.00
41686;BME280;27370;42.764;23.432;2022-08-21T12:58:21;94818.66;;;24.69;100.00
41686;BME280;27370;42.764;23.432;2022-08-21T13:00:50;94811.84;;;24.70;99.44
41686;BME280;27370;42.764;23.432;2022-08-21T13:03:16;94816.13;;;24.71;100.00
41686;BME280;27370;42.764;23.432;2022-08-21T13:05:42;94815.59;;;24.72;100.00
41686;BME280;27370;42.764;23.432;2022-08-21T13:08:11;94824.22;;;24.63;100.00
41686;BME280;27370;42.764;23.432;2022-08-21T13:10:39;94822.63;;;24.73;100.00
41686;BME280;27370;42.764;23.432;2022-08-21T13:13:16;94818.88;;;24.71;100.00
41686;BME280;27370;42.764;23.432;2022-08-21T13:15:45;94821.50;;;24.58;100.00
41686;BME280;27370;42.764;23.432;2022-08-21T13:18:20;94814.75;;;24.53;100.00
41686;BME280;27370;42.764;23.432;2022-08-21T13:20:47;94817.59;;;24.48;100.00
41686;BME280;27370;42.764;23.432;2022-08-21T13:23:26;94807.94;;;24.30;100.00
41686;BME280;27370;42.764;23.432;2022-08-21T13:25:54;94814.91;;;24.36;100.00
41686;BME280;27370;42.764;23.432;2022-08-21T13:28:21;94811.44;;;24.30;100.00
41686;BME280;27370;42.764;23.432;2022-08-21T13:30:52;94806.91;;;24.27;100.00
41686;BME280;27370;42.764;23.432;2022-08-21T13:33:21;94803.19;;;24.19;100.00
41686;BME280;27370;42.764;23.432;2022-08-21T13:38:29;94789.13;;;24.17;100.00
41686;BME280;27370;42.764;23.432;2022-08-21T13:40:56;94790.59;;;24.24;100.00
41686;BME280;27370;42.764;23.432;2022-08-21T13:43:32;94784.56;;;24.20;100.00
41686;BME280;27370;42.764;23.432;2022-08-21T13:45:58;94786.31;;;24.28;100.00
41686;BME280;27370;42.764;23.432;2022-08-21T13:48:28;94775.00;;;24.26;100.00
41686;BME280;27370;42.764;23.432;2022-08-21T13:50:55;94778.47;;;24.32;100.00
41686;BME280;27370;42.764;23.432;2022-08-21T13:53:45;94781.25;;;24.32;100.00
41686;BME280;27370;42.764;23.432;2022-08-21T13:58:49;94775.66;;;24.38;100.00
41686;BME280;27370;42.764;23.432;2022-08-21T14:01:26;94780.44;;;24.37;100.00
41686;BME280;27370;42.764;23.432;2022-08-21T14:03:56;94783.78;;;24.30;100.00
41686;BME280;27370;42.764;23.432;2022-08-21T14:09:13;94782.66;;;24.45;100.00
41686;BME280;27370;42.764;23.432;2022-08-21T14:11:44;94781.41;;;24.40;100.00